map of BVH home
BVH - Airport
Location
City:  Vilhena, Rond˘nia, Brazil
Near (Alt.):Novo Campo
ICAO:SBVH
IATA:BVH

Details
Type:Airport (Aerodrome, Airfield)
Latitude:12░41'40"S (-12.694374)
Longitude:60░05'54"W (-60.098268)
Datum:WGS 1984
Elevation:2018 ft (615 m)
Variation:15.26░W (WMM2015 magnetic declination)
-0.17░ annual change
Runways:1
Longest:8530 × 98 ft (2600 × 30 m), paved

Time
Time Zone:UTC-4
Local Time:

Weather
METAR:SBVH 161300Z 06006KT 030V090 9999 FEW030 27/23 Q1014
TAF:SBVH 161000Z 1612/1624 36008KT 9999 FEW015 TN25/1612Z TX33/1618Z
BECMG 1615/1617 33008KT SCT025 FEW030TCU PROB30 1618/1621 TS SCT025 FEW030CB
BECMG 1621/1623 33005KT FEW030
RMK PEH

Related Locations
Nearby:
Farthest:USU: 12390 mi / 19940 km
Busuanga [Francisco B. Reyes Airport], PLW, PH

Find:

   beyond  
but within

Other Information
Maps:
NOTAMs:
Links:
Sources:

  
  • flag of Brazil
  • flag of Rond˘nia
  

Sectional Chart

Flight Planning
at skyvector.com

Satellite Image

Google Maps Satellite view

 

Copyright © 2004-2018 Karl L. Swartz. All rights reserved.
The Great Circle Mapper name and logo are trademarks of the Great Circle Mapper.
All other trademarks mentioned herein belong to their respective owners.
Please see credits for attibutions and further copyright information.

  Follow gcmap on Facebook Follow gcmap on Twitter Follow gcmap on Google+ GCmap on LinkedIn

hCard Microformat

Geo Microformat